To NAV CANADA Home Page Login to a new session Search on AWWS site Feedback and Comments Disclaimer Vers la page française équivalente Tips FAQ What's new on the site To the Forecasts and Observations / NOTAM section To "File a Flight Plan" website Publications and other links Update of the User's profile FIC Telephone Numbers My Weather Data Folder Route Weather Data Regional Weather Data Local Weather Data To the Forecasts and Observations / NOTAM section
Request Generated 05/25/2016 at 10:58:33 UTC . Weather information available at that time is displayed.

METAR/TAF

MONT-JOLI/QC    

METAR CYYY 251000Z 00000KT 15SM FEW040 08/07 A2983 RMK SC1 SLP104=
METAR CYYY 250900Z 00000KT 15SM FEW040 09/08 A2982 RMK SC1 SLP100=
METAR CYYY 250800Z 00000KT 15SM FEW040 09/07 A2981 RMK SC2 SLP098=

TAF CYYY 250744Z 2508/2520 17005KT P6SM FEW050 SCT160
FM251200 02006KT P6SM SCT004 TEMPO 2512/2515 5SM BR BKN003 PROB30
2512/2514 1/2SM FG VV002
FM251500 36008KT P6SM FEW006 BKN100
RMK NXT FCST BY 251400Z=
Your time UTC time
Weather data provided by Environment Canada and NAV CANADA